Time;durP1;ratioP1;P1;durP2;ratioP2;P2;SDS_P1;SDS_P2;PMS_P1;PMS_P2;Temp;Humidity;BMP_temperature;BMP_pressure;BME280_temperature;BME280_humidity;BME280_pressure;Samples;Min_cycle;Max_cycle;Signal;HPM_P1;HPM_P2
2024/04/26 05:57:18;;;;;;;3.15;1.65;;;;;;;;;;11563844;25;20001;-83
2024/04/26 06:02:28;;;;;;;3.05;1.50;;;;;;;;;;11566245;25;20093;-83
2024/04/26 06:07:43;;;;;;;3.23;1.80;;;;;;;;;;11562329;25;20448;-83
2024/04/26 06:12:59;;;;;;;4.20;2.10;;;;;;;;;;11581313;25;20064;-82
2024/04/26 06:18:29;;;;;;;3.33;2.08;;;;;;;;;;11595009;25;19996;-83
2024/04/26 06:23:39;;;;;;;5.13;2.20;;;;;;;;;;11323855;26;19994;-83
2024/04/26 06:28:42;;;;;;;3.42;1.83;;;;;;;;;;11592669;25;20272;-83
2024/04/26 06:39:40;;;;;;;4.63;2.30;;;;;;;;;;11595645;25;19991;-83
2024/04/26 06:50:35;;;;;;;7.25;2.88;;;;;;;;;;11440080;25;19988;-82
2024/04/26 06:56:06;;;;;;;5.40;2.60;;;;;;;;;;11576464;25;19992;-83
2024/04/26 07:01:32;;;;;;;5.20;2.75;;;;;;;;;;11574695;25;19996;-84
2024/04/26 07:06:34;;;;;;;4.90;2.08;;;;;;;;;;11624209;25;20008;-80
2024/04/26 07:11:35;;;;;;;4.82;2.33;;;;;;;;;;11623494;25;19996;-82
2024/04/26 07:16:37;;;;;;;5.03;2.60;;;;;;;;;;11611852;25;19992;-83
2024/04/26 07:21:59;;;;;;;4.90;2.65;;;;;;;;;;11574192;25;20003;-84
2024/04/26 07:27:24;;;;;;;6.65;3.08;;;;;;;;;;11614738;25;20347;-82
2024/04/26 07:49:57;;;;;;;5.25;3.55;;;;;;;;;;11155855;26;20137;-82
2024/04/26 07:55:01;;;;;;;4.75;3.00;;;;;;;;;;11233231;21;20002;-81
2024/04/26 08:00:02;;;;;;;5.90;3.70;;;;;;;;;;11268318;26;20006;-84
2024/04/26 08:05:03;;;;;;;4.80;3.08;;;;;;;;;;11301965;26;19991;-83
2024/04/26 08:10:21;;;;;;;6.13;3.53;;;;;;;;;;11343707;26;19990;-84
2024/04/26 08:15:28;;;;;;;5.78;3.33;;;;;;;;;;11380539;26;19998;-83
2024/04/26 08:20:33;;;;;;;4.45;2.95;;;;;;;;;;11342095;26;20395;-83
2024/04/26 08:26:02;;;;;;;13.57;8.90;;;;;;;;;;11375522;26;20006;-84
2024/04/26 08:31:13;;;;;;;5.38;2.90;;;;;;;;;;11373293;26;20102;-84
2024/04/26 08:36:19;;;;;;;5.18;2.83;;;;;;;;;;11375231;26;20073;-83
2024/04/26 08:41:30;;;;;;;6.28;4.10;;;;;;;;;;11377847;26;20072;-85
2024/04/26 08:46:38;;;;;;;7.00;4.28;;;;;;;;;;11377078;26;20001;-84
2024/04/26 08:52:01;;;;;;;7.90;4.20;;;;;;;;;;11340560;26;20008;-84
2024/04/26 09:02:47;;;;;;;5.10;3.10;;;;;;;;;;11377425;26;19987;-83
2024/04/26 09:13:20;;;;;;;5.90;3.80;;;;;;;;;;11375309;26;19928;-85
2024/04/26 09:18:47;;;;;;;5.72;3.13;;;;;;;;;;11375538;26;19994;-85
2024/04/26 09:24:03;;;;;;;4.85;2.60;;;;;;;;;;11389082;26;20004;-85
2024/04/26 09:29:09;;;;;;;5.38;3.60;;;;;;;;;;11352750;26;20032;-84
2024/04/26 09:34:12;;;;;;;6.55;4.10;;;;;;;;;;11339167;26;20001;-84
2024/04/26 09:39:14;;;;;;;4.60;3.30;;;;;;;;;;11342347;26;20462;-85
2024/04/26 09:44:16;;;;;;;5.50;3.63;;;;;;;;;;11376596;26;19994;-84
2024/04/26 09:49:17;;;;;;;5.07;3.40;;;;;;;;;;11373184;26;20004;-85
2024/04/26 09:54:18;;;;;;;4.70;2.85;;;;;;;;;;11339490;26;20000;-84
2024/04/26 09:59:19;;;;;;;10.27;6.53;;;;;;;;;;11375109;26;20334;-85
2024/04/26 10:04:20;;;;;;;6.82;4.47;;;;;;;;;;11340521;26;19998;-86
2024/04/26 10:09:25;;;;;;;4.32;3.17;;;;;;;;;;11372145;26;19998;-83
2024/04/26 10:14:27;;;;;;;4.38;3.33;;;;;;;;;;11341245;26;19990;-84
2024/04/26 10:19:28;;;;;;;9.02;4.88;;;;;;;;;;11349987;26;19986;-85
2024/04/26 10:24:36;;;;;;;7.88;5.15;;;;;;;;;;11345228;26;20297;-85
2024/04/26 10:29:38;;;;;;;8.18;4.55;;;;;;;;;;11348197;26;20005;-84
2024/04/26 10:34:39;;;;;;;6.80;4.22;;;;;;;;;;11378924;26;20125;-84
2024/04/26 10:39:40;;;;;;;4.82;3.20;;;;;;;;;;11381728;26;20010;-84
2024/04/26 10:44:43;;;;;;;5.20;3.40;;;;;;;;;;11346216;26;20480;-83
2024/04/26 10:49:44;;;;;;;5.05;3.10;;;;;;;;;;11346602;26;20001;-84
2024/04/26 10:54:45;;;;;;;4.97;2.63;;;;;;;;;;11340196;26;19994;-83
2024/04/26 10:59:54;;;;;;;5.20;3.58;;;;;;;;;;11360348;26;19998;-82
2024/04/26 11:05:02;;;;;;;5.82;3.80;;;;;;;;;;11365007;25;19994;-83
2024/04/26 11:10:06;;;;;;;5.68;3.10;;;;;;;;;;11376447;26;20010;-84
2024/04/26 11:15:09;;;;;;;6.20;3.65;;;;;;;;;;11341938;26;20068;-83
2024/04/26 11:20:12;;;;;;;4.50;3.20;;;;;;;;;;11311097;26;20070;-83
2024/04/26 11:25:19;;;;;;;6.13;3.67;;;;;;;;;;11370594;26;20002;-84
2024/04/26 11:30:22;;;;;;;4.53;2.85;;;;;;;;;;11328713;26;19993;-84
2024/04/26 11:35:23;;;;;;;3.63;3.00;;;;;;;;;;11352626;26;20478;-84
2024/04/26 11:40:25;;;;;;;4.68;3.80;;;;;;;;;;11342380;26;20110;-84
2024/04/26 11:45:27;;;;;;;5.90;3.35;;;;;;;;;;11342020;26;20023;-84
2024/04/26 11:50:31;;;;;;;5.28;3.33;;;;;;;;;;11374586;26;20305;-83
2024/04/26 11:55:33;;;;;;;7.40;5.32;;;;;;;;;;11375194;26;19994;-83
2024/04/26 12:00:34;;;;;;;6.43;4.20;;;;;;;;;;11375759;26;20063;-82
2024/04/26 12:05:38;;;;;;;4.68;3.47;;;;;;;;;;11377623;26;20009;-83
2024/04/26 12:10:43;;;;;;;4.28;3.47;;;;;;;;;;11373131;26;19993;-83
2024/04/26 12:15:54;;;;;;;3.67;3.10;;;;;;;;;;11342821;26;19989;-84
2024/04/26 12:20:55;;;;;;;;;;;;;;;;;;11344823;26;20005;-83
2024/04/26 12:26:01;;;;;;;5.82;4.45;;;;;;;;;;11342529;26;19959;-83
2024/04/26 12:31:22;;;;;;;6.43;4.70;;;;;;;;;;11342328;26;19994;-84
2024/04/26 12:36:28;;;;;;;5.25;3.63;;;;;;;;;;11342973;26;19998;-84
2024/04/26 12:41:33;;;;;;;5.95;4.65;;;;;;;;;;11337282;26;19990;-84
2024/04/26 12:46:42;;;;;;;8.02;6.28;;;;;;;;;;11384999;25;19993;-84
2024/04/26 12:52:21;;;;;;;6.80;3.92;;;;;;;;;;11375835;26;20062;-84
2024/04/26 13:08:55;;;;;;;5.80;3.92;;;;;;;;;;11372942;26;20006;-83
2024/04/26 13:19:24;;;;;;;8.10;6.07;;;;;;;;;;11373283;26;20013;-83
2024/04/26 13:24:33;;;;;;;5.00;4.07;;;;;;;;;;11343434;26;20392;-84
2024/04/26 13:29:50;;;;;;;4.80;2.85;;;;;;;;;;11371375;26;20354;-84
2024/04/26 13:34:57;;;;;;;4.50;3.45;;;;;;;;;;11372535;26;19994;-84
2024/04/26 13:46:00;;;;;;;;;;;;;;;;;;11373152;26;20014;-85
2024/04/26 13:57:06;;;;;;;4.78;3.25;;;;;;;;;;11335013;21;20012;-85
2024/04/26 14:02:39;;;;;;;4.78;3.95;;;;;;;;;;11204919;26;20036;-83
2024/04/26 14:07:41;;;;;;;6.57;5.15;;;;;;;;;;11203635;26;20002;-84
2024/04/26 14:12:49;;;;;;;5.22;3.60;;;;;;;;;;11205409;26;20010;-83
2024/04/26 14:18:11;;;;;;;5.45;3.53;;;;;;;;;;11205016;26;19999;-83
2024/04/26 14:23:13;;;;;;;14.60;11.65;;;;;;;;;;11234642;26;20015;-82
2024/04/26 14:28:35;;;;;;;5.53;4.20;;;;;;;;;;11204190;26;20002;-83
2024/04/26 14:34:07;;;;;;;5.18;4.35;;;;;;;;;;11237596;26;19991;-82
2024/04/26 14:39:20;;;;;;;5.70;3.95;;;;;;;;;;11239871;26;19995;-83
2024/04/26 14:50:40;;;;;;;5.80;3.00;;;;;;;;;;11237875;26;20060;-84
2024/04/26 14:56:25;;;;;;;6.22;4.53;;;;;;;;;;11209353;26;19983;-83
2024/04/26 15:02:02;;;;;;;6.18;5.43;;;;;;;;;;11218200;26;20010;-84
2024/04/26 15:07:25;;;;;;;7.85;5.63;;;;;;;;;;11226089;26;20005;-85
2024/04/26 15:12:29;;;;;;;4.15;3.38;;;;;;;;;;11197987;26;20010;-84
2024/04/26 15:17:52;;;;;;;4.07;3.53;;;;;;;;;;11200971;26;19995;-83
2024/04/26 15:22:53;;;;;;;4.10;3.13;;;;;;;;;;11206033;26;20000;-83
2024/04/26 15:28:16;;;;;;;6.10;4.50;;;;;;;;;;11203800;26;20015;-84
2024/04/26 15:56:29;;;;;;;3.97;3.03;;;;;;;;;;11148368;26;19987;-83
2024/04/26 16:13:31;;;;;;;4.80;3.53;;;;;;;;;;11227128;26;19999;-84
2024/04/26 16:29:52;;;;;;;4.90;2.38;;;;;;;;;;10959492;26;20375;-84
2024/04/26 18:42:20;;;;;;;2.67;2.30;;;;;;;;;;11217459;26;20107;-83
2024/04/26 18:53:35;;;;;;;5.85;4.65;;;;;;;;;;11222897;26;20447;-83
